createdAt,value
2022-12-25T00:01:07.253Z,58.70
2022-12-25T00:03:35.522Z,58.60
2022-12-25T00:06:02.334Z,58.60
2022-12-25T00:08:29.124Z,58.50
2022-12-25T00:10:59.794Z,58.60
2022-12-25T00:13:26.609Z,58.40
2022-12-25T00:15:53.600Z,58.40
2022-12-25T00:18:20.562Z,58.40
2022-12-25T00:20:57.836Z,58.30
2022-12-25T00:23:24.624Z,58.20
2022-12-25T00:25:51.703Z,58.20
2022-12-25T00:28:18.400Z,58.10
2022-12-25T00:30:45.122Z,58.10
2022-12-25T00:33:11.805Z,58.10
2022-12-25T00:35:38.466Z,58.20
2022-12-25T00:38:06.525Z,58.20
2022-12-25T00:40:33.250Z,58.20
2022-12-25T00:42:59.932Z,58.20
2022-12-25T00:45:26.640Z,58.30
2022-12-25T00:47:53.884Z,58.20
2022-12-25T00:50:20.523Z,58.20
2022-12-25T00:52:47.250Z,58.10
2022-12-25T00:55:15.335Z,58.20
2022-12-25T00:57:42.002Z,58.20
2022-12-25T01:00:09.817Z,58.10
2022-12-25T01:02:36.579Z,58.10
2022-12-25T01:05:03.771Z,58.10
2022-12-25T01:07:30.420Z,58.10
2022-12-25T01:09:57.321Z,58.00
2022-12-25T01:12:25.344Z,58.00
2022-12-25T01:14:52.032Z,57.90
2022-12-25T01:17:18.693Z,58.00
2022-12-25T01:19:45.345Z,58.10
2022-12-25T01:22:12.010Z,58.00
2022-12-25T01:24:38.674Z,58.00
2022-12-25T01:27:05.325Z,58.00
2022-12-25T01:29:33.323Z,58.00
2022-12-25T01:32:00.056Z,58.00
2022-12-25T01:34:26.779Z,58.10
2022-12-25T01:36:53.482Z,58.10
2022-12-25T01:39:20.262Z,58.00
2022-12-25T01:41:46.960Z,57.90
2022-12-25T01:44:47.227Z,58.10
2022-12-25T01:47:16.696Z,57.90
2022-12-25T01:49:46.665Z,58.20
2022-12-25T01:52:23.348Z,58.00
2022-12-25T01:54:53.645Z,58.10
2022-12-25T01:57:24.393Z,58.10
2022-12-25T01:59:51.757Z,58.10
2022-12-25T02:02:20.249Z,58.10
2022-12-25T02:04:53.539Z,58.10
2022-12-25T02:07:22.486Z,58.30
2022-12-25T02:09:49.672Z,58.40
2022-12-25T02:12:19.648Z,58.60
2022-12-25T02:14:48.521Z,58.60
2022-12-25T02:17:23.887Z,58.70
2022-12-25T02:20:35.692Z,58.90
2022-12-25T02:23:41.592Z,59.00
2022-12-25T02:26:16.811Z,59.20
2022-12-25T02:28:52.166Z,59.40
2022-12-25T02:31:25.373Z,59.60
2022-12-25T02:33:58.339Z,59.70
2022-12-25T02:36:29.426Z,59.60
2022-12-25T02:39:00.388Z,59.80
2022-12-25T02:41:29.515Z,59.60
2022-12-25T02:44:01.076Z,59.50
2022-12-25T02:46:31.153Z,59.50
2022-12-25T02:49:01.067Z,59.40
2022-12-25T02:51:31.462Z,59.20
2022-12-25T02:54:01.364Z,59.00
2022-12-25T02:56:30.859Z,58.90
2022-12-25T02:58:59.816Z,58.90
2022-12-25T03:01:29.958Z,58.80
2022-12-25T03:03:59.860Z,58.70
2022-12-25T03:06:28.889Z,58.60
2022-12-25T03:08:57.924Z,58.60
2022-12-25T03:11:24.713Z,58.40
2022-12-25T03:13:53.995Z,57.90
2022-12-25T03:16:22.759Z,58.30
2022-12-25T03:18:49.515Z,58.20
2022-12-25T03:21:16.216Z,58.20
2022-12-25T03:23:46.344Z,58.10
2022-12-25T03:26:13.068Z,58.00
2022-12-25T03:28:39.707Z,57.90
2022-12-25T03:31:15.976Z,58.00
2022-12-25T03:34:13.225Z,57.80
2022-12-25T03:36:51.017Z,57.60
2022-12-25T03:39:26.412Z,57.80
2022-12-25T03:41:58.289Z,57.70
2022-12-25T03:44:34.702Z,57.70
2022-12-25T03:47:09.546Z,57.60
2022-12-25T03:49:45.456Z,57.50
2022-12-25T03:52:16.085Z,57.40
2022-12-25T03:54:43.954Z,57.40
2022-12-25T03:57:11.427Z,57.40
2022-12-25T03:59:38.115Z,57.40
2022-12-25T04:02:04.978Z,57.40
2022-12-25T04:04:31.885Z,57.40
2022-12-25T04:06:59.865Z,57.30
2022-12-25T04:09:26.874Z,57.30
2022-12-25T04:11:58.787Z,57.40
2022-12-25T04:14:28.763Z,57.40
2022-12-25T04:16:55.453Z,57.30
2022-12-25T04:19:22.110Z,57.30
2022-12-25T04:21:48.762Z,57.40
2022-12-25T04:24:16.776Z,57.30
2022-12-25T04:26:43.524Z,57.30
2022-12-25T04:29:10.293Z,57.40
2022-12-25T04:31:37.065Z,57.20
2022-12-25T04:34:04.004Z,57.40
2022-12-25T04:36:30.732Z,57.40
2022-12-25T04:38:57.379Z,57.40
2022-12-25T04:41:25.373Z,57.40
2022-12-25T04:43:52.098Z,57.40
2022-12-25T04:46:18.820Z,57.50
2022-12-25T04:48:45.543Z,57.40
2022-12-25T04:51:17.792Z,57.50
2022-12-25T04:53:45.396Z,57.50
2022-12-25T04:56:12.318Z,57.70
2022-12-25T04:58:40.790Z,57.70
2022-12-25T05:01:07.591Z,57.70
2022-12-25T05:03:35.429Z,57.70
2022-12-25T05:06:02.671Z,57.70
2022-12-25T05:08:30.103Z,57.70
2022-12-25T05:10:56.799Z,57.70
2022-12-25T05:13:23.483Z,57.70
2022-12-25T05:15:51.795Z,57.70
2022-12-25T05:18:18.630Z,57.80
2022-12-25T05:20:51.836Z,57.80
2022-12-25T05:23:18.486Z,57.70
2022-12-25T05:25:46.301Z,57.70
2022-12-25T05:28:12.976Z,57.70
2022-12-25T05:30:39.665Z,57.70
2022-12-25T05:33:07.659Z,57.70
2022-12-25T05:35:36.825Z,57.70
2022-12-25T05:38:03.878Z,57.70
2022-12-25T05:40:30.609Z,57.70
2022-12-25T05:42:57.307Z,57.70
2022-12-25T05:45:23.978Z,57.70
2022-12-25T05:47:50.635Z,57.80
2022-12-25T05:50:18.671Z,57.70
2022-12-25T05:52:45.329Z,57.80
2022-12-25T05:55:11.998Z,57.80
2022-12-25T05:57:38.719Z,57.80
2022-12-25T06:00:06.632Z,57.80
2022-12-25T06:02:34.944Z,57.80
2022-12-25T06:05:01.766Z,58.00
2022-12-25T06:07:30.335Z,57.90
2022-12-25T06:09:56.996Z,58.00
2022-12-25T06:12:23.671Z,58.00
2022-12-25T06:14:50.372Z,58.10
2022-12-25T06:17:17.029Z,58.10
2022-12-25T06:19:43.826Z,58.00
2022-12-25T06:22:10.572Z,58.00
2022-12-25T06:24:38.733Z,57.90
2022-12-25T06:27:05.376Z,57.90
2022-12-25T06:29:32.057Z,57.90
2022-12-25T06:31:58.864Z,58.00
2022-12-25T06:34:25.955Z,57.90
2022-12-25T06:36:52.876Z,58.00
2022-12-25T06:39:19.906Z,58.00
2022-12-25T06:41:48.319Z,58.00
2022-12-25T06:44:14.956Z,58.00
2022-12-25T06:46:41.648Z,58.10
2022-12-25T06:49:09.739Z,58.10
2022-12-25T06:51:36.454Z,58.00
2022-12-25T06:54:03.126Z,58.00
2022-12-25T06:56:30.488Z,58.20
2022-12-25T06:58:59.994Z,58.30
2022-12-25T07:01:30.256Z,58.30
2022-12-25T07:04:00.765Z,58.30
2022-12-25T07:06:28.956Z,58.30
2022-12-25T07:08:55.663Z,58.20
2022-12-25T07:11:22.598Z,58.10
2022-12-25T07:13:49.292Z,58.30
2022-12-25T07:16:17.704Z,58.30
2022-12-25T07:18:44.551Z,58.30
2022-12-25T07:21:14.152Z,58.10
2022-12-25T07:23:41.413Z,58.10
2022-12-25T07:26:09.710Z,58.10
2022-12-25T07:28:36.434Z,58.30
2022-12-25T07:31:04.655Z,58.20
2022-12-25T07:33:32.841Z,58.20
2022-12-25T07:35:59.738Z,58.20
2022-12-25T07:38:26.485Z,58.10
2022-12-25T07:40:53.643Z,58.30
2022-12-25T07:43:20.636Z,58.30
2022-12-25T07:45:47.540Z,58.30
2022-12-25T07:48:16.916Z,58.40
2022-12-25T07:50:45.192Z,58.60
2022-12-25T07:53:11.957Z,58.60
2022-12-25T07:55:38.654Z,58.40
2022-12-25T07:58:07.194Z,58.30
2022-12-25T08:00:34.102Z,58.20
2022-12-25T08:03:01.020Z,58.40
2022-12-25T08:05:27.857Z,58.50
2022-12-25T08:07:57.903Z,58.50
2022-12-25T08:10:24.904Z,58.70
2022-12-25T08:12:51.569Z,58.60
2022-12-25T08:15:18.237Z,58.50
2022-12-25T08:17:44.911Z,58.40
2022-12-25T08:20:12.181Z,58.50
2022-12-25T08:22:38.859Z,58.50
2022-12-25T08:25:07.497Z,58.70
2022-12-25T08:27:34.340Z,58.40
2022-12-25T08:30:01.014Z,58.50
2022-12-25T08:32:27.713Z,58.50
2022-12-25T08:34:54.400Z,58.60
2022-12-25T08:37:21.036Z,58.50
2022-12-25T08:39:47.712Z,58.40
2022-12-25T08:42:15.726Z,58.40
2022-12-25T08:44:42.385Z,58.50
2022-12-25T08:47:09.056Z,58.30
2022-12-25T08:49:36.681Z,58.30
2022-12-25T08:52:03.566Z,58.30
2022-12-25T08:54:30.261Z,58.20
2022-12-25T08:57:02.438Z,58.30
2022-12-25T08:59:31.145Z,58.60
2022-12-25T09:01:57.900Z,58.70
2022-12-25T09:04:24.672Z,58.70
2022-12-25T09:06:51.307Z,58.50
2022-12-25T09:09:18.000Z,58.60
2022-12-25T09:11:44.719Z,58.70
2022-12-25T09:14:11.419Z,58.60
2022-12-25T09:16:39.438Z,58.60
2022-12-25T09:19:06.109Z,58.90
2022-12-25T09:21:32.857Z,58.80
2022-12-25T09:23:59.511Z,58.90
2022-12-25T09:26:26.171Z,59.10
2022-12-25T09:28:52.958Z,59.40
2022-12-25T09:31:20.569Z,59.20
2022-12-25T09:33:49.171Z,59.40
2022-12-25T09:36:15.818Z,59.50
2022-12-25T09:38:42.616Z,59.90
2022-12-25T09:41:17.017Z,60.00
2022-12-25T09:43:47.660Z,60.50
2022-12-25T09:46:18.814Z,60.50
2022-12-25T09:48:54.351Z,60.50
2022-12-25T09:51:22.611Z,60.90
2022-12-25T09:53:56.923Z,61.10
2022-12-25T09:56:25.346Z,61.00
2022-12-25T09:58:52.470Z,60.80
2022-12-25T10:01:28.895Z,60.70
2022-12-25T10:04:21.961Z,60.90
2022-12-25T10:07:01.391Z,60.80
2022-12-25T10:09:45.996Z,61.00
2022-12-25T10:12:30.998Z,61.20
2022-12-25T10:15:07.700Z,61.20
2022-12-25T10:17:42.915Z,61.50
2022-12-25T10:20:20.753Z,60.80
2022-12-25T10:22:51.163Z,61.00
2022-12-25T10:25:19.999Z,60.60
2022-12-25T10:27:51.551Z,60.80
2022-12-25T10:30:20.803Z,61.30
2022-12-25T10:32:48.043Z,60.90
2022-12-25T10:35:18.477Z,61.20
2022-12-25T10:37:49.695Z,61.00
2022-12-25T10:40:28.423Z,60.50
2022-12-25T10:42:58.782Z,60.50
2022-12-25T10:45:25.467Z,60.30
2022-12-25T10:48:07.165Z,60.30
2022-12-25T10:50:42.892Z,60.60
2022-12-25T10:53:19.701Z,60.90
2022-12-25T10:55:55.447Z,61.10
2022-12-25T10:58:22.122Z,61.20
2022-12-25T11:00:53.514Z,61.10
2022-12-25T11:03:23.238Z,59.90
2022-12-25T11:05:51.563Z,59.60
2022-12-25T11:08:21.351Z,59.40
2022-12-25T11:10:54.185Z,59.30
2022-12-25T11:13:23.017Z,59.40
2022-12-25T11:15:51.632Z,59.10
2022-12-25T11:18:21.053Z,59.00
2022-12-25T11:20:51.199Z,58.80
2022-12-25T11:23:19.309Z,59.10
2022-12-25T11:25:55.337Z,59.20
2022-12-25T11:28:22.032Z,59.20
2022-12-25T11:30:52.434Z,58.80
2022-12-25T11:33:20.658Z,59.00
2022-12-25T11:35:52.192Z,59.00
2022-12-25T11:38:18.963Z,59.30
2022-12-25T11:40:49.060Z,58.90
2022-12-25T11:43:21.934Z,58.90
2022-12-25T11:45:52.893Z,58.70
2022-12-25T11:48:24.616Z,58.70
2022-12-25T11:50:55.881Z,58.50
2022-12-25T11:53:28.773Z,58.90
2022-12-25T11:55:59.863Z,58.70
2022-12-25T11:58:30.403Z,58.40
2022-12-25T12:01:00.699Z,58.70
2022-12-25T12:03:31.383Z,59.10
2022-12-25T12:06:03.166Z,58.80
2022-12-25T12:08:32.403Z,58.90
2022-12-25T12:11:09.525Z,58.80
2022-12-25T12:13:43.048Z,58.70
2022-12-25T12:16:10.084Z,59.10
2022-12-25T12:18:36.904Z,58.50
2022-12-25T12:21:09.558Z,58.80
2022-12-25T12:23:48.585Z,58.70
2022-12-25T12:26:19.369Z,58.20
2022-12-25T12:28:47.753Z,58.20
2022-12-25T12:31:14.913Z,58.50
2022-12-25T12:33:48.708Z,58.60
2022-12-25T12:36:25.014Z,58.70
2022-12-25T12:38:58.363Z,59.10
2022-12-25T12:41:44.492Z,58.30
2022-12-25T12:44:12.346Z,58.50
2022-12-25T12:46:49.523Z,58.60
2022-12-25T12:49:21.969Z,58.50
2022-12-25T12:51:50.651Z,58.80
2022-12-25T12:54:20.608Z,58.80
2022-12-25T12:56:58.811Z,58.50
2022-12-25T12:59:26.854Z,58.50
2022-12-25T13:02:04.868Z,58.60
2022-12-25T13:04:48.272Z,59.50
2022-12-25T13:07:31.118Z,58.90
2022-12-25T13:10:05.739Z,59.30
2022-12-25T13:12:32.671Z,59.10
2022-12-25T13:15:00.541Z,58.50
2022-12-25T13:17:28.582Z,58.70
2022-12-25T13:19:57.589Z,58.50
2022-12-25T13:22:30.300Z,58.40
2022-12-25T13:24:58.478Z,58.60
2022-12-25T13:27:27.656Z,58.10
2022-12-25T13:29:54.462Z,58.30
2022-12-25T13:32:24.807Z,58.30
2022-12-25T13:34:52.632Z,58.20
2022-12-25T13:37:22.053Z,58.20
2022-12-25T13:39:52.428Z,58.20
2022-12-25T13:42:21.403Z,58.40
2022-12-25T13:45:16.952Z,58.60
2022-12-25T13:47:43.994Z,58.80
2022-12-25T13:50:16.709Z,58.10
2022-12-25T13:52:43.371Z,58.50
2022-12-25T13:55:14.568Z,58.40
2022-12-25T13:57:44.625Z,58.30
2022-12-25T14:00:18.240Z,58.20
2022-12-25T14:02:45.774Z,57.80
2022-12-25T14:05:28.075Z,57.90
2022-12-25T14:07:56.012Z,58.40
2022-12-25T14:10:27.412Z,58.40
2022-12-25T14:12:58.431Z,58.10
2022-12-25T14:15:27.171Z,58.30
2022-12-25T14:17:54.231Z,58.00
2022-12-25T14:20:23.599Z,58.20
2022-12-25T14:23:37.265Z,58.30
2022-12-25T14:26:05.584Z,57.90
2022-12-25T14:28:32.912Z,57.90
2022-12-25T14:31:00.691Z,57.60
2022-12-25T14:33:32.607Z,57.50
2022-12-25T14:35:59.537Z,57.70
2022-12-25T14:38:28.455Z,57.60
2022-12-25T14:40:59.334Z,57.70
2022-12-25T14:43:29.306Z,58.10
2022-12-25T14:45:57.512Z,57.90
2022-12-25T14:48:25.867Z,57.70
2022-12-25T14:50:57.145Z,57.60
2022-12-25T14:53:28.157Z,57.80
2022-12-25T14:55:55.279Z,57.90
2022-12-25T14:58:25.692Z,57.50
2022-12-25T15:00:56.667Z,57.60
2022-12-25T15:03:27.356Z,58.10
2022-12-25T15:06:01.026Z,57.70
2022-12-25T15:08:29.255Z,57.70
2022-12-25T15:11:00.521Z,57.70
2022-12-25T15:13:29.966Z,57.60
2022-12-25T15:16:03.653Z,57.50
2022-12-25T15:18:34.061Z,58.00
2022-12-25T15:21:00.795Z,57.70
2022-12-25T15:23:27.475Z,57.60
2022-12-25T15:25:54.185Z,57.60
2022-12-25T15:28:21.351Z,57.40
2022-12-25T15:30:48.238Z,57.60
2022-12-25T15:33:17.939Z,57.50
2022-12-25T15:35:44.987Z,57.90
2022-12-25T15:38:12.209Z,59.10
2022-12-25T15:40:39.479Z,58.20
2022-12-25T15:43:11.426Z,57.80
2022-12-25T15:45:47.620Z,57.90
2022-12-25T15:48:15.623Z,58.00
2022-12-25T15:50:42.292Z,57.70
2022-12-25T15:53:10.295Z,57.90
2022-12-25T15:55:36.959Z,58.50
2022-12-25T15:58:03.671Z,58.40
2022-12-25T16:00:30.468Z,58.40
2022-12-25T16:02:57.214Z,58.50
2022-12-25T16:05:26.662Z,58.30
2022-12-25T16:07:53.339Z,58.20
2022-12-25T16:10:20.477Z,58.50
2022-12-25T16:12:47.200Z,58.80
2022-12-25T16:15:15.776Z,58.50
2022-12-25T16:17:42.713Z,58.50
2022-12-25T16:20:10.330Z,58.30
2022-12-25T16:22:38.287Z,58.40
2022-12-25T16:25:07.400Z,58.70
2022-12-25T16:27:34.028Z,58.70
2022-12-25T16:30:00.747Z,58.70
2022-12-25T16:32:27.491Z,58.90
2022-12-25T16:34:54.141Z,58.70
2022-12-25T16:37:21.855Z,58.70
2022-12-25T16:39:50.017Z,58.70
2022-12-25T16:42:16.723Z,58.70
2022-12-25T16:44:43.618Z,59.50
2022-12-25T16:47:10.351Z,60.10
2022-12-25T16:49:37.066Z,60.20
2022-12-25T16:52:04.033Z,60.10
2022-12-25T16:54:30.703Z,59.80
2022-12-25T16:56:58.994Z,59.70
2022-12-25T16:59:27.936Z,59.70
2022-12-25T17:01:54.690Z,59.50
2022-12-25T17:04:22.171Z,59.50
2022-12-25T17:06:49.295Z,59.30
2022-12-25T17:09:15.991Z,59.50
2022-12-25T17:11:42.677Z,59.50
2022-12-25T17:14:16.603Z,59.70
2022-12-25T17:16:43.334Z,59.40
2022-12-25T17:19:17.830Z,59.50
2022-12-25T17:21:44.872Z,59.60
2022-12-25T17:24:12.063Z,59.50
2022-12-25T17:26:38.982Z,59.40
2022-12-25T17:29:05.699Z,59.60
2022-12-25T17:31:34.580Z,59.50
2022-12-25T17:34:02.462Z,59.60
2022-12-25T17:36:29.185Z,59.20
2022-12-25T17:38:55.984Z,59.60
2022-12-25T17:41:22.624Z,58.90
2022-12-25T17:43:49.317Z,59.20
2022-12-25T17:46:18.097Z,59.40
2022-12-25T17:48:46.762Z,59.30
2022-12-25T17:51:15.451Z,59.60
2022-12-25T17:53:44.459Z,59.20
2022-12-25T17:56:12.607Z,59.10
2022-12-25T17:58:39.754Z,59.40
2022-12-25T18:01:07.634Z,59.10
2022-12-25T18:03:34.673Z,59.70
2022-12-25T18:06:02.760Z,59.10
2022-12-25T18:08:35.331Z,59.00
2022-12-25T18:11:07.353Z,58.90
2022-12-25T18:13:34.281Z,58.90
2022-12-25T18:16:02.656Z,58.80
2022-12-25T18:18:29.580Z,59.40
2022-12-25T18:20:56.321Z,59.40
2022-12-25T18:23:24.675Z,59.50
2022-12-25T18:25:51.567Z,59.30
2022-12-25T18:28:18.252Z,59.40
2022-12-25T18:30:46.218Z,59.10
2022-12-25T18:33:12.975Z,58.80
2022-12-25T18:35:41.175Z,59.00
2022-12-25T18:38:08.574Z,59.00
2022-12-25T18:40:40.604Z,58.70
2022-12-25T18:43:07.453Z,58.70
2022-12-25T18:45:34.181Z,58.70
2022-12-25T18:48:01.029Z,58.80
2022-12-25T18:50:27.809Z,58.70
2022-12-25T18:52:54.621Z,58.60
2022-12-25T18:55:21.486Z,58.50
2022-12-25T18:57:49.594Z,58.70
2022-12-25T19:00:17.224Z,58.80
2022-12-25T19:02:44.184Z,58.70
2022-12-25T19:05:11.088Z,58.80
2022-12-25T19:07:37.780Z,59.00
2022-12-25T19:10:05.847Z,58.70
2022-12-25T19:12:33.353Z,58.70
2022-12-25T19:15:01.609Z,58.80
2022-12-25T19:17:31.818Z,59.00
2022-12-25T19:19:59.124Z,58.70
2022-12-25T19:22:26.881Z,58.20
2022-12-25T19:24:53.645Z,58.40
2022-12-25T19:27:20.345Z,58.40
2022-12-25T19:29:47.102Z,58.70
2022-12-25T19:32:15.347Z,58.40
2022-12-25T19:34:42.063Z,58.70
2022-12-25T19:37:08.764Z,58.70
2022-12-25T19:39:35.494Z,58.60
2022-12-25T19:42:02.270Z,58.50
2022-12-25T19:44:29.141Z,58.80
2022-12-25T19:46:56.034Z,58.70
2022-12-25T19:49:24.173Z,58.70
2022-12-25T19:51:50.936Z,58.80
2022-12-25T19:54:18.093Z,58.90
2022-12-25T19:56:45.013Z,58.90
2022-12-25T19:59:17.533Z,59.10
2022-12-25T20:01:44.420Z,59.30
2022-12-25T20:04:22.152Z,59.40
2022-12-25T20:06:52.300Z,59.50
2022-12-25T20:09:21.424Z,59.50
2022-12-25T20:11:51.556Z,59.10
2022-12-25T20:14:19.094Z,59.10
2022-12-25T20:16:46.195Z,59.20
2022-12-25T20:19:13.618Z,59.30
2022-12-25T20:21:40.968Z,59.30
2022-12-25T20:24:09.536Z,59.30
2022-12-25T20:26:39.547Z,59.40
2022-12-25T20:29:06.907Z,59.30
2022-12-25T20:31:35.398Z,59.30
2022-12-25T20:34:05.830Z,59.50
2022-12-25T20:36:37.161Z,59.80
2022-12-25T20:39:05.207Z,59.60
2022-12-25T20:41:33.437Z,59.70
2022-12-25T20:44:00.256Z,59.50
2022-12-25T20:46:27.426Z,59.40
2022-12-25T20:48:54.438Z,59.70
2022-12-25T20:51:22.708Z,59.30
2022-12-25T20:53:50.317Z,59.50
2022-12-25T20:56:18.818Z,59.50
2022-12-25T20:58:47.036Z,59.80
2022-12-25T21:01:15.896Z,59.50
2022-12-25T21:03:43.653Z,59.30
2022-12-25T21:06:10.954Z,59.60
2022-12-25T21:08:38.268Z,60.20
2022-12-25T21:11:05.791Z,59.90
2022-12-25T21:13:34.583Z,60.00
2022-12-25T21:16:05.246Z,60.40
2022-12-25T21:18:32.410Z,60.80
2022-12-25T21:20:59.494Z,61.10
2022-12-25T21:23:26.288Z,60.70
2022-12-25T21:25:53.403Z,60.00
2022-12-25T21:28:20.375Z,60.20
2022-12-25T21:30:47.155Z,60.30
2022-12-25T21:33:17.217Z,61.00
2022-12-25T21:35:44.087Z,60.80
2022-12-25T21:38:10.849Z,60.90
2022-12-25T21:40:38.590Z,60.80
2022-12-25T21:43:06.041Z,61.20
2022-12-25T21:45:33.890Z,61.40
2022-12-25T21:48:02.986Z,61.20
2022-12-25T21:50:36.021Z,61.30
2022-12-25T21:53:06.585Z,61.60
2022-12-25T21:55:33.295Z,61.80
2022-12-25T21:58:00.058Z,62.00
2022-12-25T22:00:26.995Z,61.50
2022-12-25T22:02:54.123Z,61.90
2022-12-25T22:05:20.914Z,62.30
2022-12-25T22:07:49.677Z,61.40
2022-12-25T22:10:16.510Z,61.80
2022-12-25T22:12:43.195Z,61.80
2022-12-25T22:15:10.717Z,62.20
2022-12-25T22:17:39.247Z,62.20
2022-12-25T22:20:08.598Z,62.30
2022-12-25T22:22:35.349Z,62.10
2022-12-25T22:25:05.529Z,61.90
2022-12-25T22:27:33.820Z,62.20
2022-12-25T22:30:00.858Z,61.70
2022-12-25T22:32:28.261Z,62.00
2022-12-25T22:34:54.967Z,62.10
2022-12-25T22:37:23.053Z,62.50
2022-12-25T22:39:49.809Z,62.50
2022-12-25T22:42:17.960Z,62.00
2022-12-25T22:44:45.419Z,62.00
2022-12-25T22:47:12.129Z,62.50
2022-12-25T22:49:38.816Z,62.60
2022-12-25T22:52:05.519Z,62.50
2022-12-25T22:54:32.205Z,62.00
2022-12-25T22:56:58.900Z,62.90
2022-12-25T22:59:27.462Z,62.10
2022-12-25T23:01:54.541Z,62.40
2022-12-25T23:04:21.469Z,61.80
2022-12-25T23:06:48.202Z,62.20
2022-12-25T23:09:24.017Z,61.80
2022-12-25T23:11:51.387Z,62.00
2022-12-25T23:14:18.239Z,63.00
2022-12-25T23:16:46.451Z,61.90
2022-12-25T23:19:14.012Z,62.50
2022-12-25T23:21:42.065Z,61.70
2022-12-25T23:24:09.684Z,61.90
2022-12-25T23:26:36.662Z,61.90
2022-12-25T23:29:03.342Z,62.10
2022-12-25T23:31:32.345Z,61.80
2022-12-25T23:34:01.005Z,63.30
2022-12-25T23:36:27.891Z,62.30
2022-12-25T23:38:54.828Z,62.50
2022-12-25T23:41:21.736Z,62.30
2022-12-25T23:43:48.470Z,62.50
2022-12-25T23:46:15.831Z,62.20
2022-12-25T23:48:42.579Z,62.20
2022-12-25T23:51:10.875Z,62.50
2022-12-25T23:53:37.581Z,62.40
2022-12-25T23:56:04.860Z,62.60
2022-12-25T23:58:33.353Z,62.40
